createdAt,value
2018-11-25T00:00:24.217Z,35.43
2018-11-25T00:02:53.107Z,34.83
2018-11-25T00:05:21.964Z,37.13
2018-11-25T00:07:50.903Z,43.03
2018-11-25T00:10:19.793Z,40.13
2018-11-25T00:12:48.636Z,33.73
2018-11-25T00:15:17.575Z,38.30
2018-11-25T00:17:46.566Z,29.63
2018-11-25T00:20:15.549Z,32.10
2018-11-25T00:22:44.700Z,30.33
2018-11-25T00:25:15.308Z,27.90
2018-11-25T00:27:44.211Z,29.07
2018-11-25T00:30:16.851Z,27.40
2018-11-25T00:32:45.895Z,29.83
2018-11-25T00:35:15.785Z,27.97
2018-11-25T00:37:48.580Z,27.90
2018-11-25T00:40:15.873Z,30.73
2018-11-25T00:42:45.394Z,29.10
2018-11-25T00:45:15.767Z,30.77
2018-11-25T00:47:44.636Z,29.23
2018-11-25T00:50:14.454Z,27.80
2018-11-25T00:52:43.372Z,30.10
2018-11-25T00:55:19.348Z,30.90
2018-11-25T00:57:48.274Z,27.10
2018-11-25T01:00:20.186Z,27.00
2018-11-25T01:02:50.047Z,25.93
2018-11-25T01:05:19.125Z,24.40
2018-11-25T01:07:48.072Z,25.13
2018-11-25T01:10:17.844Z,26.10
2018-11-25T01:12:46.840Z,24.70
2018-11-25T01:15:17.521Z,24.47
2018-11-25T01:17:46.540Z,25.77
2018-11-25T01:20:17.677Z,27.33
2018-11-25T01:22:47.829Z,31.47
2018-11-25T01:25:16.810Z,27.23
2018-11-25T01:27:45.812Z,29.40
2018-11-25T01:30:16.501Z,29.50
2018-11-25T01:32:45.423Z,29.37
2018-11-25T01:35:14.545Z,28.83
2018-11-25T01:37:43.689Z,29.23
2018-11-25T01:40:13.602Z,30.23
2018-11-25T01:42:42.697Z,29.10
2018-11-25T01:45:12.720Z,31.20
2018-11-25T01:47:41.696Z,30.17
2018-11-25T01:50:15.553Z,25.90
2018-11-25T01:52:44.534Z,26.40
2018-11-25T01:55:14.556Z,26.33
2018-11-25T01:57:43.545Z,25.40
2018-11-25T02:00:13.700Z,24.80
2018-11-25T02:02:42.716Z,24.77
2018-11-25T02:05:11.696Z,24.03
2018-11-25T02:07:40.615Z,27.80
2018-11-25T02:10:13.951Z,21.77
2018-11-25T02:12:42.956Z,21.90
2018-11-25T02:15:13.042Z,22.30
2018-11-25T02:17:42.105Z,21.00
2018-11-25T02:20:19.203Z,21.80
2018-11-25T02:22:48.140Z,22.23
2018-11-25T02:25:17.102Z,21.53
2018-11-25T02:27:46.031Z,23.33
2018-11-25T02:30:17.001Z,24.53
2018-11-25T02:32:46.545Z,26.77
2018-11-25T02:35:16.279Z,25.67
2018-11-25T02:37:45.707Z,26.83
2018-11-25T02:40:15.416Z,27.53
2018-11-25T02:42:44.279Z,27.23
2018-11-25T02:45:15.119Z,28.97
2018-11-25T02:47:44.034Z,29.37
2018-11-25T02:50:31.772Z,29.63
2018-11-25T02:53:05.748Z,28.23
2018-11-25T02:55:34.776Z,26.37
2018-11-25T02:58:03.680Z,27.30
2018-11-25T03:00:32.622Z,27.97
2018-11-25T03:03:01.612Z,31.57
2018-11-25T03:05:30.482Z,30.77
2018-11-25T03:07:59.384Z,31.90
2018-11-25T03:10:28.521Z,32.83
2018-11-25T03:12:57.428Z,44.95
2018-11-25T03:15:26.347Z,37.03
2018-11-25T03:17:55.351Z,34.33
2018-11-25T03:20:24.255Z,32.43
2018-11-25T03:22:53.176Z,32.13
2018-11-25T03:25:22.540Z,29.83
2018-11-25T03:27:51.776Z,30.93
2018-11-25T03:30:21.580Z,32.10
2018-11-25T03:32:51.626Z,32.53
2018-11-25T03:35:20.608Z,28.23
2018-11-25T03:37:49.637Z,30.70
2018-11-25T03:40:19.168Z,31.33
2018-11-25T03:42:48.169Z,36.90
2018-11-25T03:45:18.036Z,31.37
2018-11-25T03:47:47.005Z,30.23
2018-11-25T03:50:16.335Z,28.77
2018-11-25T03:52:45.327Z,27.93
2018-11-25T03:55:15.452Z,27.23
2018-11-25T03:57:44.450Z,27.27
2018-11-25T04:00:14.421Z,27.67
2018-11-25T04:02:43.436Z,30.90
2018-11-25T04:05:13.574Z,33.87
2018-11-25T04:07:42.809Z,36.83
2018-11-25T04:10:14.382Z,39.10
2018-11-25T04:12:43.303Z,39.10
2018-11-25T04:15:13.358Z,32.97
2018-11-25T04:17:42.613Z,33.90
2018-11-25T04:20:15.719Z,35.63
2018-11-25T04:22:44.816Z,41.40
2018-11-25T04:25:14.254Z,37.77
2018-11-25T04:27:43.189Z,36.10
2018-11-25T04:30:13.299Z,35.30
2018-11-25T04:32:42.336Z,31.73
2018-11-25T04:35:12.241Z,30.07
2018-11-25T04:37:41.313Z,30.57
2018-11-25T04:40:12.168Z,28.13
2018-11-25T04:42:41.021Z,28.13
2018-11-25T04:45:13.113Z,28.67
2018-11-25T04:47:42.081Z,27.07
2018-11-25T04:50:16.864Z,28.00
2018-11-25T04:52:45.930Z,26.93
2018-11-25T04:55:14.960Z,25.70
2018-11-25T04:57:49.992Z,27.63
2018-11-25T05:00:19.481Z,28.20
2018-11-25T05:02:48.842Z,25.77
2018-11-25T05:05:17.946Z,27.27
2018-11-25T05:07:46.960Z,27.80
2018-11-25T05:10:16.795Z,30.07
2018-11-25T05:12:45.724Z,29.13
2018-11-25T05:15:19.311Z,29.20
2018-11-25T05:17:48.221Z,31.27
2018-11-25T05:20:17.963Z,35.53
2018-11-25T05:22:46.944Z,35.37
2018-11-25T05:25:16.820Z,36.83
2018-11-25T05:27:45.763Z,35.73
2018-11-25T05:30:19.090Z,39.73
2018-11-25T05:32:48.012Z,38.27
2018-11-25T05:35:18.093Z,35.93
2018-11-25T05:37:47.018Z,39.00
2018-11-25T05:40:16.620Z,35.73
2018-11-25T05:42:45.644Z,34.63
2018-11-25T05:45:18.571Z,42.00
2018-11-25T05:47:47.608Z,34.27
2018-11-25T05:50:17.590Z,31.77
2018-11-25T05:52:46.535Z,31.83
2018-11-25T05:55:15.550Z,30.97
2018-11-25T05:57:44.539Z,30.30
2018-11-25T06:00:22.363Z,31.40
2018-11-25T06:02:51.253Z,30.20
2018-11-25T06:05:20.219Z,29.40
2018-11-25T06:07:49.199Z,27.17
2018-11-25T06:10:18.181Z,28.07
2018-11-25T06:12:47.143Z,27.83
2018-11-25T06:15:16.080Z,26.87
2018-11-25T06:17:45.028Z,26.23
2018-11-25T06:20:15.822Z,26.90
2018-11-25T06:22:44.920Z,26.00
2018-11-25T06:25:15.889Z,24.53
2018-11-25T06:27:44.817Z,25.37
2018-11-25T06:30:18.594Z,25.90
2018-11-25T06:32:47.501Z,25.73
2018-11-25T06:35:17.361Z,26.27
2018-11-25T06:37:46.360Z,25.93
2018-11-25T06:40:17.108Z,26.70
2018-11-25T06:42:46.162Z,25.80
2018-11-25T06:45:21.325Z,27.47
2018-11-25T06:47:50.238Z,27.10
2018-11-25T06:50:20.549Z,28.67
2018-11-25T06:52:49.449Z,26.73
2018-11-25T06:55:18.375Z,26.47
2018-11-25T06:57:48.532Z,29.27
2018-11-25T07:00:22.470Z,29.83
2018-11-25T07:02:51.412Z,30.40
2018-11-25T07:05:20.328Z,28.50
2018-11-25T07:07:49.306Z,31.93
2018-11-25T07:10:20.194Z,32.60
2018-11-25T07:12:50.209Z,37.97
2018-11-25T07:15:19.619Z,33.80
2018-11-25T07:17:48.712Z,35.37
2018-11-25T07:20:21.370Z,36.90
2018-11-25T07:22:51.601Z,40.13
2018-11-25T07:25:22.469Z,44.37
2018-11-25T07:27:51.525Z,40.93
2018-11-25T07:30:23.407Z,36.53
2018-11-25T07:32:52.367Z,36.13
2018-11-25T07:35:21.394Z,37.10
2018-11-25T07:37:50.304Z,36.07
2018-11-25T07:40:20.177Z,37.57
2018-11-25T07:42:49.473Z,34.33
2018-11-25T07:45:19.476Z,34.87
2018-11-25T07:47:48.438Z,36.70
2018-11-25T07:50:17.424Z,28.17
2018-11-25T07:52:47.223Z,26.17
2018-11-25T07:55:20.166Z,28.83
2018-11-25T07:57:49.672Z,22.90
2018-11-25T08:00:20.524Z,23.27
2018-11-25T08:02:49.396Z,25.60
2018-11-25T08:05:19.526Z,20.73
2018-11-25T08:07:48.415Z,20.70
2018-11-25T08:10:17.439Z,25.67
2018-11-25T08:12:46.880Z,33.10
2018-11-25T08:15:17.595Z,25.37
2018-11-25T08:17:46.584Z,24.57
2018-11-25T08:20:16.617Z,26.83
2018-11-25T08:22:45.555Z,29.77
2018-11-25T08:25:17.281Z,31.03
2018-11-25T08:27:52.761Z,35.17
2018-11-25T08:30:23.566Z,35.50
2018-11-25T08:32:52.934Z,36.93
2018-11-25T08:35:22.100Z,34.60
2018-11-25T08:37:51.057Z,27.93
2018-11-25T08:40:21.950Z,26.07
2018-11-25T08:42:50.897Z,26.33
2018-11-25T08:45:19.909Z,21.77
2018-11-25T08:47:48.756Z,22.23
2018-11-25T08:50:18.715Z,23.23
2018-11-25T08:52:49.532Z,21.53
2018-11-25T08:55:22.626Z,22.37
2018-11-25T08:57:51.560Z,22.30
2018-11-25T09:00:21.560Z,23.07
2018-11-25T09:02:51.331Z,24.20
2018-11-25T09:05:20.223Z,21.73
2018-11-25T09:07:50.402Z,27.00
2018-11-25T09:10:21.320Z,23.33
2018-11-25T09:12:55.709Z,22.17
2018-11-25T09:15:24.518Z,22.67
2018-11-25T09:17:53.472Z,25.17
2018-11-25T09:20:22.910Z,24.60
2018-11-25T09:22:52.433Z,23.70
2018-11-25T09:25:28.485Z,23.17
2018-11-25T09:27:58.154Z,31.97
2018-11-25T09:30:27.953Z,21.77
2018-11-25T09:32:56.987Z,22.43
2018-11-25T09:35:26.164Z,24.77
2018-11-25T09:37:55.117Z,22.73
2018-11-25T09:40:26.444Z,18.90
2018-11-25T09:42:55.505Z,20.37
2018-11-25T09:45:24.545Z,19.97
2018-11-25T09:47:53.500Z,20.73
2018-11-25T09:50:23.431Z,22.83
2018-11-25T09:52:52.484Z,18.97
2018-11-25T09:55:25.198Z,19.63
2018-11-25T09:58:00.044Z,19.40
2018-11-25T10:00:31.020Z,20.13
2018-11-25T10:02:59.969Z,24.27
2018-11-25T10:05:28.928Z,21.83
2018-11-25T10:07:57.873Z,27.73
2018-11-25T10:10:26.906Z,28.33
2018-11-25T10:12:55.878Z,26.77
2018-11-25T10:15:25.954Z,24.57
2018-11-25T10:17:59.742Z,27.97
2018-11-25T10:20:25.195Z,21.37
2018-11-25T10:22:54.179Z,28.90
2018-11-25T10:25:23.203Z,20.13
2018-11-25T10:27:52.198Z,18.47
2018-11-25T10:30:22.005Z,19.67
2018-11-25T10:32:54.076Z,21.57
2018-11-25T10:35:22.952Z,18.40
2018-11-25T10:37:51.896Z,19.20
2018-11-25T10:40:21.948Z,21.90
2018-11-25T10:42:50.938Z,20.50
2018-11-25T10:45:25.670Z,19.63
2018-11-25T10:47:54.713Z,22.13
2018-11-25T10:50:23.695Z,20.67
2018-11-25T10:52:54.105Z,21.53
2018-11-25T10:55:23.481Z,26.03
2018-11-25T10:57:53.836Z,23.23
2018-11-25T11:00:42.336Z,21.23
2018-11-25T11:03:16.766Z,20.37
2018-11-25T11:05:50.915Z,22.22
2018-11-25T11:08:19.807Z,20.70
2018-11-25T11:10:48.852Z,19.10
2018-11-25T11:13:19.065Z,18.57
2018-11-25T11:15:47.982Z,18.70
2018-11-25T11:18:16.908Z,19.73
2018-11-25T11:20:45.869Z,17.87
2018-11-25T11:23:14.842Z,23.20
2018-11-25T11:25:49.164Z,21.43
2018-11-25T11:28:18.047Z,22.10
2018-11-25T11:30:46.908Z,24.20
2018-11-25T11:33:15.906Z,20.53
2018-11-25T11:35:44.788Z,26.62
2018-11-25T11:38:14.967Z,22.47
2018-11-25T11:40:44.226Z,21.67
2018-11-25T11:43:13.267Z,21.00
2018-11-25T11:45:42.201Z,18.43
2018-11-25T11:48:11.172Z,22.13
2018-11-25T11:50:40.304Z,21.60
2018-11-25T11:53:09.449Z,18.80
2018-11-25T11:55:39.786Z,17.93
2018-11-25T11:58:08.748Z,19.90
2018-11-25T12:00:37.736Z,17.17
2018-11-25T12:03:08.340Z,16.67
2018-11-25T12:05:37.249Z,16.63
2018-11-25T12:08:06.715Z,16.73
2018-11-25T12:10:37.089Z,19.00
2018-11-25T12:13:06.901Z,16.50
2018-11-25T12:15:35.871Z,16.33
2018-11-25T12:18:04.995Z,16.17
2018-11-25T12:20:34.017Z,16.70
2018-11-25T12:23:03.026Z,25.53
2018-11-25T12:25:32.172Z,20.70
2018-11-25T12:28:02.352Z,19.47
2018-11-25T12:30:31.216Z,12.97
2018-11-25T12:33:00.177Z,14.77
2018-11-25T12:35:29.186Z,14.70
2018-11-25T12:37:58.111Z,15.47
2018-11-25T12:40:27.160Z,13.77
2018-11-25T12:42:57.601Z,15.20
2018-11-25T12:45:26.701Z,13.73
2018-11-25T12:47:55.644Z,14.30
2018-11-25T12:50:25.733Z,14.37
2018-11-25T12:52:54.880Z,15.70
2018-11-25T12:55:25.144Z,15.37
2018-11-25T12:57:54.373Z,16.37
2018-11-25T13:00:30.756Z,15.67
2018-11-25T13:02:59.949Z,16.50
2018-11-25T13:05:28.875Z,16.95
2018-11-25T13:07:57.833Z,16.30
2018-11-25T13:10:28.102Z,14.50
2018-11-25T13:12:57.050Z,13.73
2018-11-25T13:15:26.089Z,13.63
2018-11-25T13:17:56.319Z,14.17
2018-11-25T13:20:25.276Z,15.80
2018-11-25T13:22:54.255Z,16.70
2018-11-25T13:25:23.383Z,18.37
2018-11-25T13:27:52.433Z,19.73
2018-11-25T13:30:28.776Z,21.40
2018-11-25T13:32:58.937Z,21.77
2018-11-25T13:35:29.253Z,22.00
2018-11-25T13:37:58.221Z,22.57
2018-11-25T13:40:27.202Z,20.90
2018-11-25T13:42:56.248Z,21.27
2018-11-25T13:45:25.215Z,19.37
2018-11-25T13:47:54.125Z,18.97
2018-11-25T13:50:23.091Z,20.77
2018-11-25T13:52:52.026Z,20.63
2018-11-25T13:55:23.275Z,19.83
2018-11-25T13:57:52.219Z,20.47
2018-11-25T14:00:27.942Z,20.70
2018-11-25T14:02:58.408Z,20.50
2018-11-25T14:05:27.307Z,21.17
2018-11-25T14:07:56.303Z,21.43
2018-11-25T14:10:27.102Z,22.40
2018-11-25T14:12:56.091Z,20.93
2018-11-25T14:15:25.212Z,21.70
2018-11-25T14:17:54.171Z,21.30
2018-11-25T14:20:23.092Z,21.43
2018-11-25T14:22:52.018Z,20.50
2018-11-25T14:25:21.888Z,21.20
2018-11-25T14:27:52.993Z,24.20
2018-11-25T14:30:23.473Z,19.97
2018-11-25T14:32:52.413Z,20.63
2018-11-25T14:35:21.411Z,25.17
2018-11-25T14:37:50.316Z,21.23
2018-11-25T14:40:20.191Z,22.67
2018-11-25T14:42:49.489Z,20.97
2018-11-25T14:45:18.941Z,21.57
2018-11-25T14:47:47.916Z,20.20
2018-11-25T14:50:18.382Z,21.40
2018-11-25T14:52:48.577Z,24.53
2018-11-25T14:55:17.845Z,21.80
2018-11-25T14:57:46.826Z,25.17
2018-11-25T15:00:19.851Z,22.10
2018-11-25T15:02:52.344Z,26.87
2018-11-25T15:05:24.024Z,27.57
2018-11-25T15:07:52.976Z,25.73
2018-11-25T15:10:23.317Z,26.27
2018-11-25T15:12:52.334Z,24.70
2018-11-25T15:15:21.179Z,27.23
2018-11-25T15:17:51.433Z,27.47
2018-11-25T15:20:20.458Z,26.80
2018-11-25T15:22:53.553Z,26.80
2018-11-25T15:25:24.319Z,27.70
2018-11-25T15:27:53.316Z,25.97
2018-11-25T15:30:22.350Z,25.97
2018-11-25T15:32:51.362Z,28.57
2018-11-25T15:35:20.365Z,27.53
2018-11-25T15:37:51.544Z,26.93
2018-11-25T15:40:35.982Z,25.60
2018-11-25T15:43:06.628Z,28.40
2018-11-25T15:45:35.561Z,25.20
2018-11-25T15:48:09.228Z,27.93
2018-11-25T15:50:38.331Z,29.20
2018-11-25T15:53:08.464Z,29.70
2018-11-25T15:55:37.449Z,29.93
2018-11-25T15:58:07.328Z,31.73
2018-11-25T16:00:36.415Z,32.50
2018-11-25T16:03:06.960Z,31.70
2018-11-25T16:05:35.988Z,29.47
2018-11-25T16:08:05.135Z,31.17
2018-11-25T16:10:34.149Z,28.63
2018-11-25T16:13:03.136Z,27.97
2018-11-25T16:15:32.145Z,28.63
2018-11-25T16:18:02.495Z,31.60
2018-11-25T16:20:31.405Z,32.07
2018-11-25T16:23:03.771Z,33.13
2018-11-25T16:25:51.108Z,32.80
2018-11-25T16:28:23.609Z,36.83
2018-11-25T16:30:54.226Z,37.00
2018-11-25T16:33:23.106Z,43.50
2018-11-25T16:35:52.005Z,45.73
2018-11-25T16:38:21.001Z,43.27
2018-11-25T16:40:49.925Z,42.87
2018-11-25T16:43:18.951Z,55.00
2018-11-25T16:45:48.091Z,35.77
2018-11-25T16:48:17.069Z,36.20
2018-11-25T16:50:47.421Z,39.73
2018-11-25T16:53:16.390Z,36.53
2018-11-25T16:55:45.314Z,34.43
2018-11-25T16:58:14.377Z,33.90
2018-11-25T17:00:43.396Z,29.83
2018-11-25T17:03:12.351Z,27.23
2018-11-25T17:05:43.249Z,29.60
2018-11-25T17:08:22.360Z,32.10
2018-11-25T17:10:51.604Z,28.77
2018-11-25T17:13:20.640Z,29.87
2018-11-25T17:15:49.607Z,28.90
2018-11-25T17:18:18.680Z,27.37
2018-11-25T17:20:47.649Z,29.43
2018-11-25T17:23:17.995Z,30.33
2018-11-25T17:25:47.136Z,28.13
2018-11-25T17:28:16.230Z,27.60
2018-11-25T17:30:45.185Z,30.10
2018-11-25T17:33:14.340Z,28.93
2018-11-25T17:35:43.348Z,30.17
2018-11-25T17:38:13.730Z,29.17
2018-11-25T17:40:42.713Z,29.03
2018-11-25T17:43:13.481Z,29.50
2018-11-25T17:45:42.442Z,30.77
2018-11-25T17:48:11.360Z,30.00
2018-11-25T17:50:40.285Z,34.73
2018-11-25T17:53:09.555Z,33.67
2018-11-25T17:55:38.478Z,42.17
2018-11-25T17:58:07.645Z,54.07
2018-11-25T18:00:43.401Z,54.40
2018-11-25T18:03:25.282Z,60.92
2018-11-25T18:05:54.461Z,53.40
2018-11-25T18:08:23.423Z,57.70
2018-11-25T18:10:53.021Z,58.93
2018-11-25T18:13:26.112Z,55.97
2018-11-25T18:15:56.389Z,57.87
2018-11-25T18:18:32.108Z,56.33
2018-11-25T18:21:02.986Z,51.90
2018-11-25T18:23:31.994Z,51.07
2018-11-25T18:26:01.094Z,49.70
2018-11-25T18:28:30.099Z,47.90
2018-11-25T18:30:59.149Z,45.60
2018-11-25T18:33:28.126Z,48.53
2018-11-25T18:35:57.189Z,47.83
2018-11-25T18:38:26.199Z,47.20
2018-11-25T18:40:55.202Z,45.93
2018-11-25T18:43:24.217Z,54.17
2018-11-25T18:45:59.437Z,50.37
2018-11-25T18:48:23.939Z,47.67
2018-11-25T18:50:52.915Z,40.10
2018-11-25T18:53:21.776Z,31.93
2018-11-25T18:55:49.292Z,30.03
2018-11-25T18:58:18.250Z,30.00
2018-11-25T19:00:56.877Z,46.47
2018-11-25T19:03:25.820Z,40.20
2018-11-25T19:05:54.799Z,46.80
2018-11-25T19:08:23.736Z,45.23
2018-11-25T19:10:52.660Z,52.00
2018-11-25T19:13:21.571Z,54.27
2018-11-25T19:15:50.538Z,58.13
2018-11-25T19:18:19.498Z,54.50
2018-11-25T19:20:48.384Z,52.40
2018-11-25T19:23:18.871Z,37.90
2018-11-25T19:25:47.847Z,35.20
2018-11-25T19:28:16.798Z,31.83
2018-11-25T19:30:46.001Z,26.20
2018-11-25T19:33:14.904Z,27.33
2018-11-25T19:35:43.815Z,28.40
2018-11-25T19:38:13.969Z,26.07
2018-11-25T19:40:43.016Z,24.53
2018-11-25T19:43:12.293Z,29.30
2018-11-25T19:45:41.207Z,30.67
2018-11-25T19:48:11.449Z,28.50
2018-11-25T19:50:40.422Z,29.10
2018-11-25T19:53:10.557Z,30.63
2018-11-25T19:55:41.461Z,30.93
2018-11-25T19:58:10.444Z,30.70
2018-11-25T20:00:39.488Z,34.23
2018-11-25T20:03:08.708Z,35.43
2018-11-25T20:05:39.961Z,39.40
2018-11-25T20:08:09.338Z,53.87
2018-11-25T20:10:38.416Z,53.00
2018-11-25T20:13:09.088Z,52.73
2018-11-25T20:15:38.328Z,52.60
2018-11-25T20:18:08.681Z,53.57
2018-11-25T20:20:39.031Z,54.37
2018-11-25T20:23:08.029Z,54.97
2018-11-25T20:25:36.986Z,54.07
2018-11-25T20:28:06.065Z,56.80
2018-11-25T20:30:35.349Z,53.50
2018-11-25T20:33:09.417Z,55.30
2018-11-25T20:35:38.365Z,54.53
2018-11-25T20:38:12.393Z,49.13
2018-11-25T20:40:41.329Z,46.07
2018-11-25T20:43:10.406Z,42.13
2018-11-25T20:45:44.562Z,41.77
2018-11-25T20:48:13.862Z,44.80
2018-11-25T20:50:42.836Z,42.23
2018-11-25T20:53:16.748Z,40.80
2018-11-25T20:55:45.693Z,45.83
2018-11-25T20:58:14.603Z,42.90
2018-11-25T21:00:43.886Z,43.00
2018-11-25T21:03:15.074Z,43.13
2018-11-25T21:05:44.035Z,47.00
2018-11-25T21:08:12.920Z,46.53
2018-11-25T21:10:41.863Z,47.90
2018-11-25T21:13:10.772Z,49.63
2018-11-25T21:15:39.902Z,49.57
2018-11-25T21:18:08.918Z,50.70
2018-11-25T21:20:37.845Z,45.60
2018-11-25T21:23:07.192Z,49.50
2018-11-25T21:25:36.181Z,46.90
2018-11-25T21:28:05.165Z,49.77
2018-11-25T21:30:35.494Z,46.90
2018-11-25T21:33:04.560Z,58.25
2018-11-25T21:35:33.521Z,48.93
2018-11-25T21:38:02.442Z,46.60
2018-11-25T21:40:31.377Z,42.67
2018-11-25T21:43:00.288Z,44.50
2018-11-25T21:45:29.193Z,41.03
2018-11-25T21:47:58.340Z,45.87
2018-11-25T21:50:28.418Z,44.23
2018-11-25T21:52:57.322Z,47.57
2018-11-25T21:55:26.352Z,45.00
2018-11-25T21:57:55.277Z,44.90
2018-11-25T22:00:25.247Z,41.80
2018-11-25T22:02:54.200Z,40.77
2018-11-25T22:05:24.967Z,39.23
2018-11-25T22:07:52.216Z,37.47
2018-11-25T22:10:22.692Z,34.93
2018-11-25T22:12:50.739Z,33.53
2018-11-25T22:15:22.003Z,33.97
2018-11-25T22:17:51.108Z,32.57
2018-11-25T22:20:20.092Z,34.10
2018-11-25T22:22:48.968Z,36.70
2018-11-25T22:25:19.397Z,45.47
2018-11-25T22:27:48.548Z,48.53
2018-11-25T22:30:21.488Z,48.67
2018-11-25T22:32:50.552Z,50.00
2018-11-25T22:35:20.906Z,47.47
2018-11-25T22:37:49.951Z,46.13
2018-11-25T22:40:19.596Z,51.63
2018-11-25T22:42:49.482Z,48.37
2018-11-25T22:45:19.431Z,47.47
2018-11-25T22:47:48.309Z,46.87
2018-11-25T22:50:18.257Z,48.30
2018-11-25T22:52:47.237Z,45.27
2018-11-25T22:55:22.240Z,51.20
2018-11-25T22:57:52.854Z,42.07
2018-11-25T23:00:27.751Z,40.93
2018-11-25T23:02:56.782Z,55.98
2018-11-25T23:05:36.570Z,45.80
2018-11-25T23:08:05.709Z,44.57
2018-11-25T23:10:34.637Z,43.90
2018-11-25T23:13:03.631Z,42.87
2018-11-25T23:15:32.713Z,41.83
2018-11-25T23:18:01.704Z,42.43
2018-11-25T23:20:30.702Z,42.60
2018-11-25T23:22:59.800Z,41.07
2018-11-25T23:25:28.800Z,40.57
2018-11-25T23:27:57.763Z,40.23
2018-11-25T23:30:26.648Z,43.87
2018-11-25T23:32:55.735Z,49.43
2018-11-25T23:35:27.072Z,48.80
2018-11-25T23:37:56.049Z,45.60
2018-11-25T23:40:26.284Z,48.80
2018-11-25T23:42:55.257Z,54.27
2018-11-25T23:45:24.229Z,54.73
2018-11-25T23:47:53.197Z,53.73
2018-11-25T23:50:22.121Z,52.53
2018-11-25T23:52:51.035Z,54.20
2018-11-25T23:55:20.120Z,44.60
2018-11-25T23:57:49.180Z,47.47
